sensor_id;sensor_type;location;lat;lon;timestamp;temperature;humidity
61392;DHT22;47261;52.892;5.738;2023-04-25T00:01:04;6.50;99.90
61392;DHT22;47261;52.892;5.738;2023-04-25T00:03:31;6.50;99.90
61392;DHT22;47261;52.892;5.738;2023-04-25T00:05:58;6.40;99.90
61392;DHT22;47261;52.892;5.738;2023-04-25T00:08:29;6.40;99.90
61392;DHT22;47261;52.892;5.738;2023-04-25T00:10:55;6.40;99.90
61392;DHT22;47261;52.892;5.738;2023-04-25T00:13:20;6.30;99.90
61392;DHT22;47261;52.892;5.738;2023-04-25T00:15:46;6.30;99.90
61392;DHT22;47261;52.892;5.738;2023-04-25T00:18:14;6.30;99.90
61392;DHT22;47261;52.892;5.738;2023-04-25T00:20:39;6.30;99.90
61392;DHT22;47261;52.892;5.738;2023-04-25T00:23:05;6.30;99.90
61392;DHT22;47261;52.892;5.738;2023-04-25T00:25:31;6.30;99.90
61392;DHT22;47261;52.892;5.738;2023-04-25T00:27:57;6.40;99.90
61392;DHT22;47261;52.892;5.738;2023-04-25T00:30:22;6.40;99.90
61392;DHT22;47261;52.892;5.738;2023-04-25T00:32:48;6.50;99.90
61392;DHT22;47261;52.892;5.738;2023-04-25T00:35:14;6.50;99.90
61392;DHT22;47261;52.892;5.738;2023-04-25T00:37:40;6.60;99.90
61392;DHT22;47261;52.892;5.738;2023-04-25T00:40:06;6.70;99.90
61392;DHT22;47261;52.892;5.738;2023-04-25T00:42:32;6.70;99.90
61392;DHT22;47261;52.892;5.738;2023-04-25T00:44:59;6.70;99.90
61392;DHT22;47261;52.892;5.738;2023-04-25T00:47:25;6.80;99.90
61392;DHT22;47261;52.892;5.738;2023-04-25T00:49:51;6.80;99.90
61392;DHT22;47261;52.892;5.738;2023-04-25T00:52:18;6.80;99.90
61392;DHT22;47261;52.892;5.738;2023-04-25T00:54:44;6.90;99.90
61392;DHT22;47261;52.892;5.738;2023-04-25T00:57:10;6.90;99.90
61392;DHT22;47261;52.892;5.738;2023-04-25T00:59:36;7.00;99.90
61392;DHT22;47261;52.892;5.738;2023-04-25T01:02:03;7.00;99.90
61392;DHT22;47261;52.892;5.738;2023-04-25T01:04:29;7.00;99.90
61392;DHT22;47261;52.892;5.738;2023-04-25T01:06:54;7.00;99.90
61392;DHT22;47261;52.892;5.738;2023-04-25T01:09:22;7.00;99.90
61392;DHT22;47261;52.892;5.738;2023-04-25T01:11:48;7.00;99.90
61392;DHT22;47261;52.892;5.738;2023-04-25T01:14:14;7.00;99.90
61392;DHT22;47261;52.892;5.738;2023-04-25T01:16:40;7.00;99.90
61392;DHT22;47261;52.892;5.738;2023-04-25T01:19:10;7.00;99.90
61392;DHT22;47261;52.892;5.738;2023-04-25T01:21:39;6.90;99.90
61392;DHT22;47261;52.892;5.738;2023-04-25T01:24:05;6.90;99.90
61392;DHT22;47261;52.892;5.738;2023-04-25T01:26:32;6.90;99.90
61392;DHT22;47261;52.892;5.738;2023-04-25T01:28:59;6.90;99.90
61392;DHT22;47261;52.892;5.738;2023-04-25T01:31:25;6.90;99.90
61392;DHT22;47261;52.892;5.738;2023-04-25T01:33:52;6.90;99.90
61392;DHT22;47261;52.892;5.738;2023-04-25T01:36:17;6.90;99.90
61392;DHT22;47261;52.892;5.738;2023-04-25T01:38:43;6.90;99.90
61392;DHT22;47261;52.892;5.738;2023-04-25T01:41:09;6.90;99.90
61392;DHT22;47261;52.892;5.738;2023-04-25T01:43:35;6.90;99.90
61392;DHT22;47261;52.892;5.738;2023-04-25T01:46:01;6.90;99.90
61392;DHT22;47261;52.892;5.738;2023-04-25T01:48:26;6.90;99.90
61392;DHT22;47261;52.892;5.738;2023-04-25T01:50:52;6.90;99.90
61392;DHT22;47261;52.892;5.738;2023-04-25T01:53:18;6.90;99.90
61392;DHT22;47261;52.892;5.738;2023-04-25T01:55:43;6.90;99.90
61392;DHT22;47261;52.892;5.738;2023-04-25T01:58:09;6.90;99.90
61392;DHT22;47261;52.892;5.738;2023-04-25T02:00:37;6.90;99.90
61392;DHT22;47261;52.892;5.738;2023-04-25T02:03:04;6.90;99.90
61392;DHT22;47261;52.892;5.738;2023-04-25T02:05:37;6.80;99.90
61392;DHT22;47261;52.892;5.738;2023-04-25T02:08:05;6.80;99.90
61392;DHT22;47261;52.892;5.738;2023-04-25T02:10:31;6.80;99.90
61392;DHT22;47261;52.892;5.738;2023-04-25T02:12:57;6.80;99.90
61392;DHT22;47261;52.892;5.738;2023-04-25T02:15:23;6.70;99.90
61392;DHT22;47261;52.892;5.738;2023-04-25T02:17:49;6.70;99.90
61392;DHT22;47261;52.892;5.738;2023-04-25T02:20:15;6.70;99.90
61392;DHT22;47261;52.892;5.738;2023-04-25T02:22:45;6.70;99.90
61392;DHT22;47261;52.892;5.738;2023-04-25T02:25:11;6.70;99.90
61392;DHT22;47261;52.892;5.738;2023-04-25T02:27:37;6.70;99.90
61392;DHT22;47261;52.892;5.738;2023-04-25T02:30:04;6.70;99.90
61392;DHT22;47261;52.892;5.738;2023-04-25T02:32:30;6.80;99.90
61392;DHT22;47261;52.892;5.738;2023-04-25T02:34:56;6.80;99.90
61392;DHT22;47261;52.892;5.738;2023-04-25T02:37:24;6.80;99.90
61392;DHT22;47261;52.892;5.738;2023-04-25T02:39:49;6.70;99.90
61392;DHT22;47261;52.892;5.738;2023-04-25T02:42:15;6.70;99.90
61392;DHT22;47261;52.892;5.738;2023-04-25T02:44:41;6.70;99.90
61392;DHT22;47261;52.892;5.738;2023-04-25T02:47:06;6.60;99.90
61392;DHT22;47261;52.892;5.738;2023-04-25T02:49:32;6.60;99.90
61392;DHT22;47261;52.892;5.738;2023-04-25T02:51:57;6.60;99.90
61392;DHT22;47261;52.892;5.738;2023-04-25T02:54:23;6.60;99.90
61392;DHT22;47261;52.892;5.738;2023-04-25T02:56:49;6.50;99.90
61392;DHT22;47261;52.892;5.738;2023-04-25T02:59:15;6.50;99.90
61392;DHT22;47261;52.892;5.738;2023-04-25T03:01:40;6.50;99.90
61392;DHT22;47261;52.892;5.738;2023-04-25T03:04:06;6.50;99.90
61392;DHT22;47261;52.892;5.738;2023-04-25T03:06:31;6.50;99.90
61392;DHT22;47261;52.892;5.738;2023-04-25T03:08:57;6.40;99.90
61392;DHT22;47261;52.892;5.738;2023-04-25T03:11:26;6.40;99.90
61392;DHT22;47261;52.892;5.738;2023-04-25T03:13:51;6.40;99.90
61392;DHT22;47261;52.892;5.738;2023-04-25T03:16:17;6.40;99.90
61392;DHT22;47261;52.892;5.738;2023-04-25T03:18:43;6.40;99.90
61392;DHT22;47261;52.892;5.738;2023-04-25T03:21:08;6.40;99.90
61392;DHT22;47261;52.892;5.738;2023-04-25T03:23:34;6.40;99.90
61392;DHT22;47261;52.892;5.738;2023-04-25T03:25:59;6.30;99.90
61392;DHT22;47261;52.892;5.738;2023-04-25T03:28:25;6.30;99.90
61392;DHT22;47261;52.892;5.738;2023-04-25T03:30:51;6.30;99.90
61392;DHT22;47261;52.892;5.738;2023-04-25T03:33:17;6.30;99.90
61392;DHT22;47261;52.892;5.738;2023-04-25T03:35:42;6.30;99.90
61392;DHT22;47261;52.892;5.738;2023-04-25T03:38:08;6.20;99.90
61392;DHT22;47261;52.892;5.738;2023-04-25T03:40:34;6.20;99.90
61392;DHT22;47261;52.892;5.738;2023-04-25T03:42:59;6.20;99.90
61392;DHT22;47261;52.892;5.738;2023-04-25T03:45:25;6.20;99.90
61392;DHT22;47261;52.892;5.738;2023-04-25T03:47:51;6.20;99.90
61392;DHT22;47261;52.892;5.738;2023-04-25T03:50:16;6.20;99.90
61392;DHT22;47261;52.892;5.738;2023-04-25T03:52:43;6.20;99.90
61392;DHT22;47261;52.892;5.738;2023-04-25T03:55:09;6.20;99.90
61392;DHT22;47261;52.892;5.738;2023-04-25T03:57:35;6.20;99.90
61392;DHT22;47261;52.892;5.738;2023-04-25T04:00:01;6.20;99.90
61392;DHT22;47261;52.892;5.738;2023-04-25T04:02:26;6.10;99.90
61392;DHT22;47261;52.892;5.738;2023-04-25T04:04:52;6.20;99.90
61392;DHT22;47261;52.892;5.738;2023-04-25T04:07:18;6.20;99.90
61392;DHT22;47261;52.892;5.738;2023-04-25T04:09:43;6.20;99.90
61392;DHT22;47261;52.892;5.738;2023-04-25T04:12:09;6.20;99.90
61392;DHT22;47261;52.892;5.738;2023-04-25T04:14:34;6.20;99.90
61392;DHT22;47261;52.892;5.738;2023-04-25T04:17:00;6.20;99.90
61392;DHT22;47261;52.892;5.738;2023-04-25T04:19:26;6.30;99.90
61392;DHT22;47261;52.892;5.738;2023-04-25T04:21:52;6.30;99.90
61392;DHT22;47261;52.892;5.738;2023-04-25T04:24:17;6.30;99.90
61392;DHT22;47261;52.892;5.738;2023-04-25T04:26:43;6.30;99.90
61392;DHT22;47261;52.892;5.738;2023-04-25T04:29:10;6.30;99.90
61392;DHT22;47261;52.892;5.738;2023-04-25T04:31:36;6.30;99.90
61392;DHT22;47261;52.892;5.738;2023-04-25T04:34:02;6.30;99.90
61392;DHT22;47261;52.892;5.738;2023-04-25T04:36:29;6.30;99.90
61392;DHT22;47261;52.892;5.738;2023-04-25T04:38:55;6.30;99.90
61392;DHT22;47261;52.892;5.738;2023-04-25T04:41:22;6.20;99.90
61392;DHT22;47261;52.892;5.738;2023-04-25T04:43:47;6.20;99.90
61392;DHT22;47261;52.892;5.738;2023-04-25T04:46:13;6.10;99.90
61392;DHT22;47261;52.892;5.738;2023-04-25T04:48:39;6.10;99.90
61392;DHT22;47261;52.892;5.738;2023-04-25T04:51:06;6.00;99.90
61392;DHT22;47261;52.892;5.738;2023-04-25T04:53:32;5.90;99.90
61392;DHT22;47261;52.892;5.738;2023-04-25T04:55:57;5.80;99.90
61392;DHT22;47261;52.892;5.738;2023-04-25T04:58:23;5.80;99.90
61392;DHT22;47261;52.892;5.738;2023-04-25T05:00:49;5.80;99.90
61392;DHT22;47261;52.892;5.738;2023-04-25T05:03:15;5.80;99.90
61392;DHT22;47261;52.892;5.738;2023-04-25T05:05:41;5.80;99.90
61392;DHT22;47261;52.892;5.738;2023-04-25T05:08:07;5.80;99.90
61392;DHT22;47261;52.892;5.738;2023-04-25T05:10:32;5.80;99.90
61392;DHT22;47261;52.892;5.738;2023-04-25T05:12:58;5.80;99.90
61392;DHT22;47261;52.892;5.738;2023-04-25T05:15:24;5.80;99.90
61392;DHT22;47261;52.892;5.738;2023-04-25T05:17:50;5.80;99.90
61392;DHT22;47261;52.892;5.738;2023-04-25T05:20:15;5.80;99.90
61392;DHT22;47261;52.892;5.738;2023-04-25T05:22:41;5.70;99.90
61392;DHT22;47261;52.892;5.738;2023-04-25T05:25:08;5.70;99.90
61392;DHT22;47261;52.892;5.738;2023-04-25T05:27:34;5.70;99.90
61392;DHT22;47261;52.892;5.738;2023-04-25T05:30:00;5.80;99.90
61392;DHT22;47261;52.892;5.738;2023-04-25T05:32:26;5.70;99.90
61392;DHT22;47261;52.892;5.738;2023-04-25T05:34:52;5.80;99.90
61392;DHT22;47261;52.892;5.738;2023-04-25T05:37:17;5.80;99.90
61392;DHT22;47261;52.892;5.738;2023-04-25T05:39:43;5.80;99.90
61392;DHT22;47261;52.892;5.738;2023-04-25T05:42:09;5.90;99.90
61392;DHT22;47261;52.892;5.738;2023-04-25T05:44:34;5.90;99.90
61392;DHT22;47261;52.892;5.738;2023-04-25T05:47:00;5.90;99.90
61392;DHT22;47261;52.892;5.738;2023-04-25T05:49:25;6.00;99.90
61392;DHT22;47261;52.892;5.738;2023-04-25T05:51:51;6.30;99.90
61392;DHT22;47261;52.892;5.738;2023-04-25T05:54:17;6.70;99.90
61392;DHT22;47261;52.892;5.738;2023-04-25T05:56:42;7.10;99.90
61392;DHT22;47261;52.892;5.738;2023-04-25T05:59:08;7.40;99.90
61392;DHT22;47261;52.892;5.738;2023-04-25T06:01:34;7.80;99.90
61392;DHT22;47261;52.892;5.738;2023-04-25T06:03:59;7.90;99.60
61392;DHT22;47261;52.892;5.738;2023-04-25T06:06:25;8.00;99.10
61392;DHT22;47261;52.892;5.738;2023-04-25T06:08:52;7.90;98.90
61392;DHT22;47261;52.892;5.738;2023-04-25T06:11:17;7.90;98.90
61392;DHT22;47261;52.892;5.738;2023-04-25T06:13:43;7.80;98.90
61392;DHT22;47261;52.892;5.738;2023-04-25T06:16:09;7.90;99.10
61392;DHT22;47261;52.892;5.738;2023-04-25T06:18:34;7.90;99.20
61392;DHT22;47261;52.892;5.738;2023-04-25T06:21:00;8.00;99.30
61392;DHT22;47261;52.892;5.738;2023-04-25T06:23:26;8.10;99.30
61392;DHT22;47261;52.892;5.738;2023-04-25T06:25:51;8.20;99.10
61392;DHT22;47261;52.892;5.738;2023-04-25T06:28:17;8.20;98.90
61392;DHT22;47261;52.892;5.738;2023-04-25T06:30:43;8.20;98.70
61392;DHT22;47261;52.892;5.738;2023-04-25T06:33:08;8.20;98.80
61392;DHT22;47261;52.892;5.738;2023-04-25T06:35:34;8.30;98.80
61392;DHT22;47261;52.892;5.738;2023-04-25T06:38:00;8.30;98.80
61392;DHT22;47261;52.892;5.738;2023-04-25T06:40:26;8.40;98.80
61392;DHT22;47261;52.892;5.738;2023-04-25T06:42:51;8.40;98.80
61392;DHT22;47261;52.892;5.738;2023-04-25T06:45:17;8.50;98.70
61392;DHT22;47261;52.892;5.738;2023-04-25T06:47:43;8.50;98.80
61392;DHT22;47261;52.892;5.738;2023-04-25T06:50:08;8.60;98.80
61392;DHT22;47261;52.892;5.738;2023-04-25T06:52:34;8.70;98.30
61392;DHT22;47261;52.892;5.738;2023-04-25T06:55:00;8.80;97.80
61392;DHT22;47261;52.892;5.738;2023-04-25T06:57:25;8.80;95.90
61392;DHT22;47261;52.892;5.738;2023-04-25T06:59:51;8.80;94.20
61392;DHT22;47261;52.892;5.738;2023-04-25T07:02:17;8.80;94.00
61392;DHT22;47261;52.892;5.738;2023-04-25T07:04:42;8.80;93.90
61392;DHT22;47261;52.892;5.738;2023-04-25T07:07:08;8.80;94.40
61392;DHT22;47261;52.892;5.738;2023-04-25T07:09:34;8.80;94.50
61392;DHT22;47261;52.892;5.738;2023-04-25T07:12:00;8.90;94.60
61392;DHT22;47261;52.892;5.738;2023-04-25T07:14:27;9.00;94.50
61392;DHT22;47261;52.892;5.738;2023-04-25T07:16:53;8.90;93.30
61392;DHT22;47261;52.892;5.738;2023-04-25T07:19:21;8.90;93.50
61392;DHT22;47261;52.892;5.738;2023-04-25T07:21:46;8.90;93.10
61392;DHT22;47261;52.892;5.738;2023-04-25T07:24:12;8.90;92.60
61392;DHT22;47261;52.892;5.738;2023-04-25T07:26:38;8.90;93.80
61392;DHT22;47261;52.892;5.738;2023-04-25T07:29:03;9.00;93.60
61392;DHT22;47261;52.892;5.738;2023-04-25T07:31:29;9.10;93.20
61392;DHT22;47261;52.892;5.738;2023-04-25T07:33:54;9.10;93.30
61392;DHT22;47261;52.892;5.738;2023-04-25T07:36:20;9.20;92.80
61392;DHT22;47261;52.892;5.738;2023-04-25T07:38:46;9.20;93.10
61392;DHT22;47261;52.892;5.738;2023-04-25T07:41:11;9.20;93.80
61392;DHT22;47261;52.892;5.738;2023-04-25T07:43:37;9.20;93.50
61392;DHT22;47261;52.892;5.738;2023-04-25T07:46:03;9.10;93.60
61392;DHT22;47261;52.892;5.738;2023-04-25T07:48:29;9.00;93.60
61392;DHT22;47261;52.892;5.738;2023-04-25T07:50:55;8.80;93.50
61392;DHT22;47261;52.892;5.738;2023-04-25T07:53:20;8.70;93.60
61392;DHT22;47261;52.892;5.738;2023-04-25T07:55:46;8.60;94.00
61392;DHT22;47261;52.892;5.738;2023-04-25T07:58:12;8.70;95.20
61392;DHT22;47261;52.892;5.738;2023-04-25T08:00:38;8.70;95.60
61392;DHT22;47261;52.892;5.738;2023-04-25T08:03:03;8.80;95.20
61392;DHT22;47261;52.892;5.738;2023-04-25T08:05:29;9.00;95.20
61392;DHT22;47261;52.892;5.738;2023-04-25T08:07:55;9.10;95.30
61392;DHT22;47261;52.892;5.738;2023-04-25T08:10:22;9.30;95.10
61392;DHT22;47261;52.892;5.738;2023-04-25T08:12:48;9.60;95.10
61392;DHT22;47261;52.892;5.738;2023-04-25T08:15:14;9.80;94.70
61392;DHT22;47261;52.892;5.738;2023-04-25T08:17:40;9.70;93.30
61392;DHT22;47261;52.892;5.738;2023-04-25T08:20:06;9.60;93.20
61392;DHT22;47261;52.892;5.738;2023-04-25T08:22:32;9.50;92.90
61392;DHT22;47261;52.892;5.738;2023-04-25T08:24:58;9.30;93.20
61392;DHT22;47261;52.892;5.738;2023-04-25T08:27:23;9.20;93.50
61392;DHT22;47261;52.892;5.738;2023-04-25T08:29:49;9.10;94.00
61392;DHT22;47261;52.892;5.738;2023-04-25T08:32:16;9.00;94.70
61392;DHT22;47261;52.892;5.738;2023-04-25T08:34:41;9.00;95.50
61392;DHT22;47261;52.892;5.738;2023-04-25T08:37:09;9.10;95.80
61392;DHT22;47261;52.892;5.738;2023-04-25T08:39:36;9.30;95.80
61392;DHT22;47261;52.892;5.738;2023-04-25T08:42:03;9.40;95.70
61392;DHT22;47261;52.892;5.738;2023-04-25T08:44:33;9.60;94.50
61392;DHT22;47261;52.892;5.738;2023-04-25T08:46:59;9.70;94.30
61392;DHT22;47261;52.892;5.738;2023-04-25T08:49:25;9.90;93.70
61392;DHT22;47261;52.892;5.738;2023-04-25T08:51:52;10.00;93.50
61392;DHT22;47261;52.892;5.738;2023-04-25T08:54:21;10.20;93.20
61392;DHT22;47261;52.892;5.738;2023-04-25T08:56:51;10.30;92.40
61392;DHT22;47261;52.892;5.738;2023-04-25T08:59:17;10.50;92.20
61392;DHT22;47261;52.892;5.738;2023-04-25T09:01:43;10.60;91.70
61392;DHT22;47261;52.892;5.738;2023-04-25T09:04:11;10.80;91.40
61392;DHT22;47261;52.892;5.738;2023-04-25T09:06:37;10.80;90.80
61392;DHT22;47261;52.892;5.738;2023-04-25T09:09:04;10.80;90.90
61392;DHT22;47261;52.892;5.738;2023-04-25T09:11:31;10.80;90.30
61392;DHT22;47261;52.892;5.738;2023-04-25T09:14:20;10.80;89.40
61392;DHT22;47261;52.892;5.738;2023-04-25T09:19:25;11.00;90.10
61392;DHT22;47261;52.892;5.738;2023-04-25T09:21:55;11.10;90.00
61392;DHT22;47261;52.892;5.738;2023-04-25T09:26:59;11.60;87.40
61392;DHT22;47261;52.892;5.738;2023-04-25T09:29:31;11.80;86.10
61392;DHT22;47261;52.892;5.738;2023-04-25T09:34:49;11.90;81.10
61392;DHT22;47261;52.892;5.738;2023-04-25T09:37:28;11.70;80.50
61392;DHT22;47261;52.892;5.738;2023-04-25T09:39:58;11.70;83.80
61392;DHT22;47261;52.892;5.738;2023-04-25T09:42:27;11.70;83.50
61392;DHT22;47261;52.892;5.738;2023-04-25T09:44:55;11.20;85.90
61392;DHT22;47261;52.892;5.738;2023-04-25T09:47:23;10.60;88.30
61392;DHT22;47261;52.892;5.738;2023-04-25T09:49:50;10.10;91.90
61392;DHT22;47261;52.892;5.738;2023-04-25T09:52:23;9.60;92.80
61392;DHT22;47261;52.892;5.738;2023-04-25T09:54:50;9.20;93.50
61392;DHT22;47261;52.892;5.738;2023-04-25T09:57:25;8.90;94.60
61392;DHT22;47261;52.892;5.738;2023-04-25T09:59:53;8.80;95.90
61392;DHT22;47261;52.892;5.738;2023-04-25T10:02:23;8.80;96.60
61392;DHT22;47261;52.892;5.738;2023-04-25T10:04:51;8.90;97.70
61392;DHT22;47261;52.892;5.738;2023-04-25T10:07:19;9.20;98.90
61392;DHT22;47261;52.892;5.738;2023-04-25T10:09:48;9.50;98.10
61392;DHT22;47261;52.892;5.738;2023-04-25T10:12:16;9.90;97.90
61392;DHT22;47261;52.892;5.738;2023-04-25T10:14:42;10.40;97.40
61392;DHT22;47261;52.892;5.738;2023-04-25T10:17:10;10.80;97.00
61392;DHT22;47261;52.892;5.738;2023-04-25T10:19:37;11.20;95.20
61392;DHT22;47261;52.892;5.738;2023-04-25T10:22:07;11.70;95.10
61392;DHT22;47261;52.892;5.738;2023-04-25T10:24:35;12.10;93.50
61392;DHT22;47261;52.892;5.738;2023-04-25T10:27:01;12.30;92.00
61392;DHT22;47261;52.892;5.738;2023-04-25T10:29:27;12.10;89.90
61392;DHT22;47261;52.892;5.738;2023-04-25T10:31:53;11.70;90.00
61392;DHT22;47261;52.892;5.738;2023-04-25T10:34:19;11.50;90.50
61392;DHT22;47261;52.892;5.738;2023-04-25T10:36:52;11.60;91.50
61392;DHT22;47261;52.892;5.738;2023-04-25T10:39:25;11.90;91.20
61392;DHT22;47261;52.892;5.738;2023-04-25T10:41:55;12.10;89.90
61392;DHT22;47261;52.892;5.738;2023-04-25T10:44:21;12.30;87.70
61392;DHT22;47261;52.892;5.738;2023-04-25T10:46:47;12.50;86.90
61392;DHT22;47261;52.892;5.738;2023-04-25T10:49:29;12.70;86.20
61392;DHT22;47261;52.892;5.738;2023-04-25T11:02:47;13.40;80.60
61392;DHT22;47261;52.892;5.738;2023-04-25T11:05:36;13.60;81.60
61392;DHT22;47261;52.892;5.738;2023-04-25T11:08:11;13.40;81.20
61392;DHT22;47261;52.892;5.738;2023-04-25T11:10:36;12.90;80.50
61392;DHT22;47261;52.892;5.738;2023-04-25T11:13:02;12.30;80.70
61392;DHT22;47261;52.892;5.738;2023-04-25T11:15:28;11.80;83.20
61392;DHT22;47261;52.892;5.738;2023-04-25T11:17:55;11.70;86.50
61392;DHT22;47261;52.892;5.738;2023-04-25T11:20:21;11.80;88.80
61392;DHT22;47261;52.892;5.738;2023-04-25T11:22:47;11.90;88.00
61392;DHT22;47261;52.892;5.738;2023-04-25T11:25:15;11.70;84.90
61392;DHT22;47261;52.892;5.738;2023-04-25T11:27:54;11.20;84.20
61392;DHT22;47261;52.892;5.738;2023-04-25T11:30:20;10.80;86.30
61392;DHT22;47261;52.892;5.738;2023-04-25T11:32:47;10.50;86.50
61392;DHT22;47261;52.892;5.738;2023-04-25T11:35:13;10.20;86.40
61392;DHT22;47261;52.892;5.738;2023-04-25T11:37:39;10.10;86.30
61392;DHT22;47261;52.892;5.738;2023-04-25T11:40:06;10.20;88.40
61392;DHT22;47261;52.892;5.738;2023-04-25T11:42:34;10.30;90.40
61392;DHT22;47261;52.892;5.738;2023-04-25T11:45:00;10.50;90.00
61392;DHT22;47261;52.892;5.738;2023-04-25T11:47:32;10.40;89.80
61392;DHT22;47261;52.892;5.738;2023-04-25T11:50:03;10.30;88.70
61392;DHT22;47261;52.892;5.738;2023-04-25T11:52:39;10.20;89.30
61392;DHT22;47261;52.892;5.738;2023-04-25T11:55:16;10.20;90.00
61392;DHT22;47261;52.892;5.738;2023-04-25T11:57:43;10.30;90.10
61392;DHT22;47261;52.892;5.738;2023-04-25T12:00:13;10.40;90.20
61392;DHT22;47261;52.892;5.738;2023-04-25T12:02:45;10.70;89.90
61392;DHT22;47261;52.892;5.738;2023-04-25T12:05:12;11.10;90.00
61392;DHT22;47261;52.892;5.738;2023-04-25T12:07:38;11.40;88.60
61392;DHT22;47261;52.892;5.738;2023-04-25T12:10:08;11.50;85.60
61392;DHT22;47261;52.892;5.738;2023-04-25T12:12:35;11.60;85.30
61392;DHT22;47261;52.892;5.738;2023-04-25T12:15:15;11.80;86.60
61392;DHT22;47261;52.892;5.738;2023-04-25T12:17:53;12.00;86.90
61392;DHT22;47261;52.892;5.738;2023-04-25T12:20:23;12.10;84.00
61392;DHT22;47261;52.892;5.738;2023-04-25T12:22:50;12.10;82.60
61392;DHT22;47261;52.892;5.738;2023-04-25T12:25:35;11.80;80.20
61392;DHT22;47261;52.892;5.738;2023-04-25T12:28:21;11.50;82.00
61392;DHT22;47261;52.892;5.738;2023-04-25T12:33:25;11.60;83.60
61392;DHT22;47261;52.892;5.738;2023-04-25T12:35:50;11.80;83.20
61392;DHT22;47261;52.892;5.738;2023-04-25T12:38:26;11.70;83.30
61392;DHT22;47261;52.892;5.738;2023-04-25T12:40:53;11.40;82.60
61392;DHT22;47261;52.892;5.738;2023-04-25T12:43:18;11.30;84.90
61392;DHT22;47261;52.892;5.738;2023-04-25T12:45:47;11.50;87.80
61392;DHT22;47261;52.892;5.738;2023-04-25T12:48:13;11.30;85.40
61392;DHT22;47261;52.892;5.738;2023-04-25T12:50:39;11.00;85.80
61392;DHT22;47261;52.892;5.738;2023-04-25T12:53:06;10.60;89.40
61392;DHT22;47261;52.892;5.738;2023-04-25T12:55:32;10.30;91.10
61392;DHT22;47261;52.892;5.738;2023-04-25T12:57:57;9.90;91.00
61392;DHT22;47261;52.892;5.738;2023-04-25T13:00:23;9.50;91.70
61392;DHT22;47261;52.892;5.738;2023-04-25T13:02:49;9.20;92.40
61392;DHT22;47261;52.892;5.738;2023-04-25T13:05:15;9.10;93.20
61392;DHT22;47261;52.892;5.738;2023-04-25T13:07:40;9.10;93.40
61392;DHT22;47261;52.892;5.738;2023-04-25T13:10:06;9.30;93.70
61392;DHT22;47261;52.892;5.738;2023-04-25T13:12:33;9.50;93.70
61392;DHT22;47261;52.892;5.738;2023-04-25T13:14:58;9.80;93.70
61392;DHT22;47261;52.892;5.738;2023-04-25T13:17:24;10.10;93.90
61392;DHT22;47261;52.892;5.738;2023-04-25T13:19:49;10.50;94.00
61392;DHT22;47261;52.892;5.738;2023-04-25T13:22:15;10.90;93.70
61392;DHT22;47261;52.892;5.738;2023-04-25T13:24:42;11.40;93.30
61392;DHT22;47261;52.892;5.738;2023-04-25T13:27:08;11.50;90.50
61392;DHT22;47261;52.892;5.738;2023-04-25T13:29:34;11.20;90.20
61392;DHT22;47261;52.892;5.738;2023-04-25T13:32:01;11.00;90.10
61392;DHT22;47261;52.892;5.738;2023-04-25T13:34:28;10.90;91.50
61392;DHT22;47261;52.892;5.738;2023-04-25T13:36:54;11.10;91.80
61392;DHT22;47261;52.892;5.738;2023-04-25T13:39:20;11.30;91.60
61392;DHT22;47261;52.892;5.738;2023-04-25T13:41:45;11.50;91.40
61392;DHT22;47261;52.892;5.738;2023-04-25T13:44:11;11.50;90.20
61392;DHT22;47261;52.892;5.738;2023-04-25T13:46:37;11.50;88.90
61392;DHT22;47261;52.892;5.738;2023-04-25T13:49:03;11.70;90.20
61392;DHT22;47261;52.892;5.738;2023-04-25T13:51:29;11.90;90.10
61392;DHT22;47261;52.892;5.738;2023-04-25T13:53:56;12.00;88.80
61392;DHT22;47261;52.892;5.738;2023-04-25T13:56:22;11.80;87.20
61392;DHT22;47261;52.892;5.738;2023-04-25T13:58:51;11.30;89.60
61392;DHT22;47261;52.892;5.738;2023-04-25T14:01:17;10.70;90.30
61392;DHT22;47261;52.892;5.738;2023-04-25T14:03:43;10.20;91.00
61392;DHT22;47261;52.892;5.738;2023-04-25T14:06:09;10.00;92.20
61392;DHT22;47261;52.892;5.738;2023-04-25T14:08:36;10.00;94.00
61392;DHT22;47261;52.892;5.738;2023-04-25T14:11:02;10.10;94.90
61392;DHT22;47261;52.892;5.738;2023-04-25T14:13:28;10.40;95.00
61392;DHT22;47261;52.892;5.738;2023-04-25T14:15:54;10.60;94.50
61392;DHT22;47261;52.892;5.738;2023-04-25T14:18:20;10.70;92.40
61392;DHT22;47261;52.892;5.738;2023-04-25T14:20:46;10.60;91.80
61392;DHT22;47261;52.892;5.738;2023-04-25T14:23:11;10.50;91.60
61392;DHT22;47261;52.892;5.738;2023-04-25T14:25:37;10.40;91.90
61392;DHT22;47261;52.892;5.738;2023-04-25T14:28:03;10.50;92.40
61392;DHT22;47261;52.892;5.738;2023-04-25T14:30:29;10.70;92.90
61392;DHT22;47261;52.892;5.738;2023-04-25T14:32:54;10.90;92.40
61392;DHT22;47261;52.892;5.738;2023-04-25T14:35:20;11.20;92.00
61392;DHT22;47261;52.892;5.738;2023-04-25T14:37:46;11.30;91.90
61392;DHT22;47261;52.892;5.738;2023-04-25T14:40:12;11.40;90.60
61392;DHT22;47261;52.892;5.738;2023-04-25T14:42:40;11.20;89.90
61392;DHT22;47261;52.892;5.738;2023-04-25T14:45:07;10.70;87.00
61392;DHT22;47261;52.892;5.738;2023-04-25T14:47:34;10.30;85.30
61392;DHT22;47261;52.892;5.738;2023-04-25T14:50:00;9.90;87.00
61392;DHT22;47261;52.892;5.738;2023-04-25T14:52:26;9.70;89.10
61392;DHT22;47261;52.892;5.738;2023-04-25T14:54:52;9.60;90.30
61392;DHT22;47261;52.892;5.738;2023-04-25T14:57:18;9.60;90.70
61392;DHT22;47261;52.892;5.738;2023-04-25T14:59:44;9.60;90.90
61392;DHT22;47261;52.892;5.738;2023-04-25T15:02:09;9.60;91.00
61392;DHT22;47261;52.892;5.738;2023-04-25T15:04:36;9.60;90.80
61392;DHT22;47261;52.892;5.738;2023-04-25T15:07:01;9.70;90.90
61392;DHT22;47261;52.892;5.738;2023-04-25T15:09:27;9.80;91.20
61392;DHT22;47261;52.892;5.738;2023-04-25T15:11:53;9.90;91.10
61392;DHT22;47261;52.892;5.738;2023-04-25T15:14:18;10.10;91.70
61392;DHT22;47261;52.892;5.738;2023-04-25T15:16:44;10.30;92.00
61392;DHT22;47261;52.892;5.738;2023-04-25T15:19:09;10.30;91.00
61392;DHT22;47261;52.892;5.738;2023-04-25T15:21:36;10.10;90.70
61392;DHT22;47261;52.892;5.738;2023-04-25T15:24:01;9.90;91.10
61392;DHT22;47261;52.892;5.738;2023-04-25T15:26:27;9.60;91.70
61392;DHT22;47261;52.892;5.738;2023-04-25T15:28:53;9.50;92.30
61392;DHT22;47261;52.892;5.738;2023-04-25T15:31:19;9.40;92.50
61392;DHT22;47261;52.892;5.738;2023-04-25T15:33:45;9.50;92.70
61392;DHT22;47261;52.892;5.738;2023-04-25T15:36:10;9.60;93.60
61392;DHT22;47261;52.892;5.738;2023-04-25T15:38:36;9.80;92.70
61392;DHT22;47261;52.892;5.738;2023-04-25T15:41:02;9.90;92.50
61392;DHT22;47261;52.892;5.738;2023-04-25T15:43:28;10.10;91.50
61392;DHT22;47261;52.892;5.738;2023-04-25T15:45:54;10.20;91.30
61392;DHT22;47261;52.892;5.738;2023-04-25T15:48:20;10.10;88.20
61392;DHT22;47261;52.892;5.738;2023-04-25T15:50:46;10.00;87.30
61392;DHT22;47261;52.892;5.738;2023-04-25T15:53:11;9.80;87.10
61392;DHT22;47261;52.892;5.738;2023-04-25T15:55:38;9.60;88.10
61392;DHT22;47261;52.892;5.738;2023-04-25T15:58:04;9.50;89.10